CheckWX is a tool to help pilots better visualize weather data.  It is not intended as a substitute for an official pre-flight weather briefing.

08:55:41 UTC

KAFK METAR
Nebraska City Municipal Airport
Nebraska City, Nebraska, USA
Current

21 mins ago

KAFK 220835Z AUTO 08007KT 10SM CLR M04/M08 A3026 RMK AO2 T10421084
Observed
Feb-22 @ 08:35 UTC
Wind
  • 080° at 7 KTS
Visibility
10 SM
Flight Rules
VFR
Cloud Levels
  • Clear skies
Temperature
-4°C / 25°F
Dewpoint
-8°C / 18°F
Humidity
74%
Altimeter
30.26" Hg
Pressure
1024.72 hPa
Previous

41 mins ago

KAFK 220815Z AUTO 07005KT 10SM CLR M04/M08 A3026 RMK AO2 T10361083
Observed
Feb-22 @ 08:15 UTC
Wind
  • 070° at 5 KTS
Visibility
10 SM
Flight Rules
VFR
Cloud Levels
  • Clear skies
Temperature
-4°C / 25°F
Dewpoint
-8°C / 18°F
Humidity
74%
Altimeter
30.26" Hg
Pressure
1024.72 hPa
Previous

1 hour ago

KAFK 220755Z AUTO 10005KT 10SM SCT110 M03/M08 A3026 RMK AO2 T10321083
Observed
Feb-22 @ 07:55 UTC
Wind
  • 100° at 5 KTS
Visibility
10 SM
Flight Rules
VFR
Cloud Levels
  • Scattered at 11,000' AGL
Temperature
-3°C / 27°F
Dewpoint
-8°C / 18°F
Humidity
69%
Altimeter
30.26" Hg
Pressure
1024.72 hPa